sensor_id;sensor_type;location;lat;lon;timestamp;P1;P2;P0
46681;PMS5003;34101;53.430;-2.224;2022-09-04T00:01:01;4;3;
46681;PMS5003;34101;53.430;-2.224;2022-09-04T00:03:37;5;5;
46681;PMS5003;34101;53.430;-2.224;2022-09-04T00:06:14;3;3;
46681;PMS5003;34101;53.430;-2.224;2022-09-04T00:08:49;5;5;
46681;PMS5003;34101;53.430;-2.224;2022-09-04T00:11:31;3;3;
46681;PMS5003;34101;53.430;-2.224;2022-09-04T00:14:08;4;4;
46681;PMS5003;34101;53.430;-2.224;2022-09-04T00:16:40;4;4;
46681;PMS5003;34101;53.430;-2.224;2022-09-04T00:19:14;4;4;
46681;PMS5003;34101;53.430;-2.224;2022-09-04T00:21:51;5;4;
46681;PMS5003;34101;53.430;-2.224;2022-09-04T00:24:22;6;4;
46681;PMS5003;34101;53.430;-2.224;2022-09-04T00:26:55;5;5;
46681;PMS5003;34101;53.430;-2.224;2022-09-04T00:29:30;4;4;
46681;PMS5003;34101;53.430;-2.224;2022-09-04T00:32:08;3;3;
46681;PMS5003;34101;53.430;-2.224;2022-09-04T00:34:46;4;4;
46681;PMS5003;34101;53.430;-2.224;2022-09-04T00:37:25;7;5;
46681;PMS5003;34101;53.430;-2.224;2022-09-04T00:39:59;5;5;
46681;PMS5003;34101;53.430;-2.224;2022-09-04T00:42:35;4;4;
46681;PMS5003;34101;53.430;-2.224;2022-09-04T00:45:18;3;3;
46681;PMS5003;34101;53.430;-2.224;2022-09-04T00:47:58;4;4;
46681;PMS5003;34101;53.430;-2.224;2022-09-04T00:50:42;4;4;
46681;PMS5003;34101;53.430;-2.224;2022-09-04T00:53:26;6;5;
46681;PMS5003;34101;53.430;-2.224;2022-09-04T00:56:14;3;3;
46681;PMS5003;34101;53.430;-2.224;2022-09-04T00:58:57;5;3;
46681;PMS5003;34101;53.430;-2.224;2022-09-04T01:01:37;4;4;
46681;PMS5003;34101;53.430;-2.224;2022-09-04T01:04:09;4;4;
46681;PMS5003;34101;53.430;-2.224;2022-09-04T01:06:53;4;4;
46681;PMS5003;34101;53.430;-2.224;2022-09-04T01:09:47;4;4;
46681;PMS5003;34101;53.430;-2.224;2022-09-04T01:12:28;4;3;
46681;PMS5003;34101;53.430;-2.224;2022-09-04T01:15:05;5;3;
46681;PMS5003;34101;53.430;-2.224;2022-09-04T01:17:39;4;4;
46681;PMS5003;34101;53.430;-2.224;2022-09-04T01:20:16;5;4;
46681;PMS5003;34101;53.430;-2.224;2022-09-04T01:22:56;7;6;
46681;PMS5003;34101;53.430;-2.224;2022-09-04T01:26:14;4;4;
46681;PMS5003;34101;53.430;-2.224;2022-09-04T01:28:52;7;5;
46681;PMS5003;34101;53.430;-2.224;2022-09-04T01:31:33;5;5;
46681;PMS5003;34101;53.430;-2.224;2022-09-04T01:34:11;6;6;
46681;PMS5003;34101;53.430;-2.224;2022-09-04T01:36:53;5;5;
46681;PMS5003;34101;53.430;-2.224;2022-09-04T01:39:26;7;7;
46681;PMS5003;34101;53.430;-2.224;2022-09-04T01:41:58;5;5;
46681;PMS5003;34101;53.430;-2.224;2022-09-04T01:44:30;5;5;
46681;PMS5003;34101;53.430;-2.224;2022-09-04T01:47:00;5;5;
46681;PMS5003;34101;53.430;-2.224;2022-09-04T01:49:37;4;4;
46681;PMS5003;34101;53.430;-2.224;2022-09-04T01:52:12;5;5;
46681;PMS5003;34101;53.430;-2.224;2022-09-04T01:54:57;6;5;
46681;PMS5003;34101;53.430;-2.224;2022-09-04T01:57:38;5;5;
46681;PMS5003;34101;53.430;-2.224;2022-09-04T02:02:56;6;6;
46681;PMS5003;34101;53.430;-2.224;2022-09-04T02:05:28;6;6;
46681;PMS5003;34101;53.430;-2.224;2022-09-04T02:08:09;6;5;
46681;PMS5003;34101;53.430;-2.224;2022-09-04T02:10:49;5;5;
46681;PMS5003;34101;53.430;-2.224;2022-09-04T02:13:25;5;5;
46681;PMS5003;34101;53.430;-2.224;2022-09-04T02:16:06;6;4;
46681;PMS5003;34101;53.430;-2.224;2022-09-04T02:18:43;4;4;
46681;PMS5003;34101;53.430;-2.224;2022-09-04T02:21:23;4;4;
46681;PMS5003;34101;53.430;-2.224;2022-09-04T02:23:59;4;4;
46681;PMS5003;34101;53.430;-2.224;2022-09-04T02:26:39;5;5;
46681;PMS5003;34101;53.430;-2.224;2022-09-04T02:29:13;6;5;
46681;PMS5003;34101;53.430;-2.224;2022-09-04T02:31:49;8;7;
46681;PMS5003;34101;53.430;-2.224;2022-09-04T02:34:33;5;5;
46681;PMS5003;34101;53.430;-2.224;2022-09-04T02:37:10;6;5;
46681;PMS5003;34101;53.430;-2.224;2022-09-04T02:39:46;4;4;
46681;PMS5003;34101;53.430;-2.224;2022-09-04T02:42:25;5;4;
46681;PMS5003;34101;53.430;-2.224;2022-09-04T02:45:01;8;7;
46681;PMS5003;34101;53.430;-2.224;2022-09-04T02:47:43;6;6;
46681;PMS5003;34101;53.430;-2.224;2022-09-04T02:50:25;6;6;
46681;PMS5003;34101;53.430;-2.224;2022-09-04T02:53:08;5;5;
46681;PMS5003;34101;53.430;-2.224;2022-09-04T02:55:47;7;5;
46681;PMS5003;34101;53.430;-2.224;2022-09-04T02:58:25;5;5;
46681;PMS5003;34101;53.430;-2.224;2022-09-04T03:01:03;6;5;
46681;PMS5003;34101;53.430;-2.224;2022-09-04T03:03:40;5;5;
46681;PMS5003;34101;53.430;-2.224;2022-09-04T03:06:13;5;5;
46681;PMS5003;34101;53.430;-2.224;2022-09-04T03:08:47;9;7;
46681;PMS5003;34101;53.430;-2.224;2022-09-04T03:11:19;7;7;
46681;PMS5003;34101;53.430;-2.224;2022-09-04T03:13:55;5;5;
46681;PMS5003;34101;53.430;-2.224;2022-09-04T03:16:30;6;6;
46681;PMS5003;34101;53.430;-2.224;2022-09-04T03:19:05;5;5;
46681;PMS5003;34101;53.430;-2.224;2022-09-04T03:21:42;7;7;
46681;PMS5003;34101;53.430;-2.224;2022-09-04T03:24:19;5;5;
46681;PMS5003;34101;53.430;-2.224;2022-09-04T03:26:52;4;4;
46681;PMS5003;34101;53.430;-2.224;2022-09-04T03:29:25;6;6;
46681;PMS5003;34101;53.430;-2.224;2022-09-04T03:32:00;6;6;
46681;PMS5003;34101;53.430;-2.224;2022-09-04T03:34:37;6;6;
46681;PMS5003;34101;53.430;-2.224;2022-09-04T03:37:17;7;7;
46681;PMS5003;34101;53.430;-2.224;2022-09-04T03:39:59;10;8;
46681;PMS5003;34101;53.430;-2.224;2022-09-04T03:42:41;8;8;
46681;PMS5003;34101;53.430;-2.224;2022-09-04T03:45:19;8;8;
46681;PMS5003;34101;53.430;-2.224;2022-09-04T03:47:59;6;6;
46681;PMS5003;34101;53.430;-2.224;2022-09-04T03:50:38;7;7;
46681;PMS5003;34101;53.430;-2.224;2022-09-04T03:53:19;7;7;
46681;PMS5003;34101;53.430;-2.224;2022-09-04T03:56:01;8;8;
46681;PMS5003;34101;53.430;-2.224;2022-09-04T03:58:18;8;8;
46681;PMS5003;34101;53.430;-2.224;2022-09-04T04:00:53;5;5;
46681;PMS5003;34101;53.430;-2.224;2022-09-04T04:03:37;9;9;
46681;PMS5003;34101;53.430;-2.224;2022-09-04T04:06:17;9;8;
46681;PMS5003;34101;53.430;-2.224;2022-09-04T04:08:56;9;9;
46681;PMS5003;34101;53.430;-2.224;2022-09-04T04:11:37;9;9;
46681;PMS5003;34101;53.430;-2.224;2022-09-04T04:14:23;9;8;
46681;PMS5003;34101;53.430;-2.224;2022-09-04T04:17:04;8;8;
46681;PMS5003;34101;53.430;-2.224;2022-09-04T04:19:50;12;8;
46681;PMS5003;34101;53.430;-2.224;2022-09-04T04:22:33;9;7;
46681;PMS5003;34101;53.430;-2.224;2022-09-04T04:25:14;9;7;
46681;PMS5003;34101;53.430;-2.224;2022-09-04T04:27:54;8;7;
46681;PMS5003;34101;53.430;-2.224;2022-09-04T04:30:31;11;10;
46681;PMS5003;34101;53.430;-2.224;2022-09-04T04:33:16;8;8;
46681;PMS5003;34101;53.430;-2.224;2022-09-04T04:35:55;11;11;
46681;PMS5003;34101;53.430;-2.224;2022-09-04T04:38:33;7;7;
46681;PMS5003;34101;53.430;-2.224;2022-09-04T04:41:15;10;10;
46681;PMS5003;34101;53.430;-2.224;2022-09-04T04:44:03;12;10;
46681;PMS5003;34101;53.430;-2.224;2022-09-04T04:46:43;11;9;
46681;PMS5003;34101;53.430;-2.224;2022-09-04T04:49:23;10;9;
46681;PMS5003;34101;53.430;-2.224;2022-09-04T04:52:05;10;10;
46681;PMS5003;34101;53.430;-2.224;2022-09-04T04:54:42;10;10;
46681;PMS5003;34101;53.430;-2.224;2022-09-04T04:57:21;12;11;
46681;PMS5003;34101;53.430;-2.224;2022-09-04T05:00:03;9;9;
46681;PMS5003;34101;53.430;-2.224;2022-09-04T05:02:35;8;6;
46681;PMS5003;34101;53.430;-2.224;2022-09-04T05:05:13;9;9;
46681;PMS5003;34101;53.430;-2.224;2022-09-04T05:07:47;12;10;
46681;PMS5003;34101;53.430;-2.224;2022-09-04T05:10:24;10;8;
46681;PMS5003;34101;53.430;-2.224;2022-09-04T05:13:04;11;11;
46681;PMS5003;34101;53.430;-2.224;2022-09-04T05:15:41;11;10;
46681;PMS5003;34101;53.430;-2.224;2022-09-04T05:18:15;10;10;
46681;PMS5003;34101;53.430;-2.224;2022-09-04T05:20:54;10;10;
46681;PMS5003;34101;53.430;-2.224;2022-09-04T05:23:30;6;5;
46681;PMS5003;34101;53.430;-2.224;2022-09-04T05:26:05;9;9;
46681;PMS5003;34101;53.430;-2.224;2022-09-04T05:28:42;9;9;
46681;PMS5003;34101;53.430;-2.224;2022-09-04T05:31:22;10;9;
46681;PMS5003;34101;53.430;-2.224;2022-09-04T05:33:58;7;7;
46681;PMS5003;34101;53.430;-2.224;2022-09-04T05:36:36;11;10;
46681;PMS5003;34101;53.430;-2.224;2022-09-04T05:39:12;14;9;
46681;PMS5003;34101;53.430;-2.224;2022-09-04T05:41:51;9;8;
46681;PMS5003;34101;53.430;-2.224;2022-09-04T05:44:31;10;10;
46681;PMS5003;34101;53.430;-2.224;2022-09-04T05:50:59;12;11;
46681;PMS5003;34101;53.430;-2.224;2022-09-04T05:53:42;11;11;
46681;PMS5003;34101;53.430;-2.224;2022-09-04T05:56:33;13;11;
46681;PMS5003;34101;53.430;-2.224;2022-09-04T05:59:33;10;10;
46681;PMS5003;34101;53.430;-2.224;2022-09-04T06:02:31;11;11;
46681;PMS5003;34101;53.430;-2.224;2022-09-04T06:04:54;11;11;
46681;PMS5003;34101;53.430;-2.224;2022-09-04T06:07:41;11;11;
46681;PMS5003;34101;53.430;-2.224;2022-09-04T06:10:21;11;11;
46681;PMS5003;34101;53.430;-2.224;2022-09-04T06:13:01;10;10;
46681;PMS5003;34101;53.430;-2.224;2022-09-04T06:15:49;11;11;
46681;PMS5003;34101;53.430;-2.224;2022-09-04T06:18:33;10;10;
46681;PMS5003;34101;53.430;-2.224;2022-09-04T06:21:19;11;10;
46681;PMS5003;34101;53.430;-2.224;2022-09-04T06:24:09;11;11;
46681;PMS5003;34101;53.430;-2.224;2022-09-04T06:26:55;9;9;
46681;PMS5003;34101;53.430;-2.224;2022-09-04T06:29:43;12;10;
46681;PMS5003;34101;53.430;-2.224;2022-09-04T06:32:27;9;9;
46681;PMS5003;34101;53.430;-2.224;2022-09-04T06:35:23;11;10;
46681;PMS5003;34101;53.430;-2.224;2022-09-04T06:38:02;10;10;
46681;PMS5003;34101;53.430;-2.224;2022-09-04T06:40:42;9;9;
46681;PMS5003;34101;53.430;-2.224;2022-09-04T06:43:20;10;10;
46681;PMS5003;34101;53.430;-2.224;2022-09-04T06:45:56;14;10;
46681;PMS5003;34101;53.430;-2.224;2022-09-04T06:48:33;13;10;
46681;PMS5003;34101;53.430;-2.224;2022-09-04T06:51:13;10;10;
46681;PMS5003;34101;53.430;-2.224;2022-09-04T06:53:54;9;9;
46681;PMS5003;34101;53.430;-2.224;2022-09-04T06:56:35;10;10;
46681;PMS5003;34101;53.430;-2.224;2022-09-04T06:59:21;12;12;
46681;PMS5003;34101;53.430;-2.224;2022-09-04T07:02:02;11;11;
46681;PMS5003;34101;53.430;-2.224;2022-09-04T07:04:43;10;9;
46681;PMS5003;34101;53.430;-2.224;2022-09-04T07:07:18;12;12;
46681;PMS5003;34101;53.430;-2.224;2022-09-04T07:09:52;12;11;
46681;PMS5003;34101;53.430;-2.224;2022-09-04T07:12:28;10;10;
46681;PMS5003;34101;53.430;-2.224;2022-09-04T07:15:45;11;11;
46681;PMS5003;34101;53.430;-2.224;2022-09-04T07:18:34;11;11;
46681;PMS5003;34101;53.430;-2.224;2022-09-04T07:21:14;13;13;
46681;PMS5003;34101;53.430;-2.224;2022-09-04T07:23:49;12;12;
46681;PMS5003;34101;53.430;-2.224;2022-09-04T07:26:23;11;11;
46681;PMS5003;34101;53.430;-2.224;2022-09-04T07:29:01;16;16;
46681;PMS5003;34101;53.430;-2.224;2022-09-04T07:31:38;10;10;
46681;PMS5003;34101;53.430;-2.224;2022-09-04T07:34:12;14;14;
46681;PMS5003;34101;53.430;-2.224;2022-09-04T07:36:47;19;18;
46681;PMS5003;34101;53.430;-2.224;2022-09-04T07:39:22;12;11;
46681;PMS5003;34101;53.430;-2.224;2022-09-04T07:41:59;11;11;
46681;PMS5003;34101;53.430;-2.224;2022-09-04T07:44:34;14;12;
46681;PMS5003;34101;53.430;-2.224;2022-09-04T07:47:09;13;13;
46681;PMS5003;34101;53.430;-2.224;2022-09-04T07:49:46;10;10;
46681;PMS5003;34101;53.430;-2.224;2022-09-04T07:52:28;13;13;
46681;PMS5003;34101;53.430;-2.224;2022-09-04T07:55:12;10;10;
46681;PMS5003;34101;53.430;-2.224;2022-09-04T07:57:51;12;11;
46681;PMS5003;34101;53.430;-2.224;2022-09-04T08:00:35;10;10;
46681;PMS5003;34101;53.430;-2.224;2022-09-04T08:03:13;12;10;
46681;PMS5003;34101;53.430;-2.224;2022-09-04T08:05:52;10;10;
46681;PMS5003;34101;53.430;-2.224;2022-09-04T08:08:32;10;9;
46681;PMS5003;34101;53.430;-2.224;2022-09-04T08:11:36;10;10;
46681;PMS5003;34101;53.430;-2.224;2022-09-04T08:14:18;12;10;
46681;PMS5003;34101;53.430;-2.224;2022-09-04T08:17:17;10;10;
46681;PMS5003;34101;53.430;-2.224;2022-09-04T08:19:59;10;9;
46681;PMS5003;34101;53.430;-2.224;2022-09-04T08:22:33;13;11;
46681;PMS5003;34101;53.430;-2.224;2022-09-04T08:25:13;10;10;
46681;PMS5003;34101;53.430;-2.224;2022-09-04T08:27:49;9;9;
46681;PMS5003;34101;53.430;-2.224;2022-09-04T08:30:28;11;11;
46681;PMS5003;34101;53.430;-2.224;2022-09-04T08:33:08;9;8;
46681;PMS5003;34101;53.430;-2.224;2022-09-04T08:35:51;14;14;
46681;PMS5003;34101;53.430;-2.224;2022-09-04T08:38:28;13;11;
46681;PMS5003;34101;53.430;-2.224;2022-09-04T08:41:10;13;13;
46681;PMS5003;34101;53.430;-2.224;2022-09-04T08:45:07;10;9;
46681;PMS5003;34101;53.430;-2.224;2022-09-04T08:46:59;10;9;
46681;PMS5003;34101;53.430;-2.224;2022-09-04T08:50:07;16;14;
46681;PMS5003;34101;53.430;-2.224;2022-09-04T08:52:50;10;10;
46681;PMS5003;34101;53.430;-2.224;2022-09-04T08:55:42;10;10;
46681;PMS5003;34101;53.430;-2.224;2022-09-04T08:58:28;10;9;
46681;PMS5003;34101;53.430;-2.224;2022-09-04T09:03:00;12;9;
46681;PMS5003;34101;53.430;-2.224;2022-09-04T09:05:58;14;11;
46681;PMS5003;34101;53.430;-2.224;2022-09-04T09:08:48;14;12;
46681;PMS5003;34101;53.430;-2.224;2022-09-04T09:15:13;8;8;
46681;PMS5003;34101;53.430;-2.224;2022-09-04T09:17:59;10;10;
46681;PMS5003;34101;53.430;-2.224;2022-09-04T09:20:28;8;8;
46681;PMS5003;34101;53.430;-2.224;2022-09-04T09:23:25;10;10;
46681;PMS5003;34101;53.430;-2.224;2022-09-04T09:26:08;12;11;
46681;PMS5003;34101;53.430;-2.224;2022-09-04T09:29:03;8;8;
46681;PMS5003;34101;53.430;-2.224;2022-09-04T09:32:37;12;8;
46681;PMS5003;34101;53.430;-2.224;2022-09-04T09:36:02;10;10;
46681;PMS5003;34101;53.430;-2.224;2022-09-04T09:39:00;10;10;
46681;PMS5003;34101;53.430;-2.224;2022-09-04T09:43:58;11;10;
46681;PMS5003;34101;53.430;-2.224;2022-09-04T09:46:41;10;10;
46681;PMS5003;34101;53.430;-2.224;2022-09-04T09:49:44;10;10;
46681;PMS5003;34101;53.430;-2.224;2022-09-04T09:52:36;9;9;
46681;PMS5003;34101;53.430;-2.224;2022-09-04T09:55:21;10;9;
46681;PMS5003;34101;53.430;-2.224;2022-09-04T09:58:14;10;10;
46681;PMS5003;34101;53.430;-2.224;2022-09-04T10:01:05;12;8;
46681;PMS5003;34101;53.430;-2.224;2022-09-04T10:03:48;9;9;
46681;PMS5003;34101;53.430;-2.224;2022-09-04T10:06:56;10;10;
46681;PMS5003;34101;53.430;-2.224;2022-09-04T10:09:48;11;9;
46681;PMS5003;34101;53.430;-2.224;2022-09-04T10:15:05;8;8;
46681;PMS5003;34101;53.430;-2.224;2022-09-04T10:18:08;8;7;
46681;PMS5003;34101;53.430;-2.224;2022-09-04T10:21:06;8;8;
46681;PMS5003;34101;53.430;-2.224;2022-09-04T10:23:47;7;7;
46681;PMS5003;34101;53.430;-2.224;2022-09-04T10:26:40;8;8;
46681;PMS5003;34101;53.430;-2.224;2022-09-04T10:29:42;9;7;
46681;PMS5003;34101;53.430;-2.224;2022-09-04T10:32:26;11;8;
46681;PMS5003;34101;53.430;-2.224;2022-09-04T10:35:09;7;7;
46681;PMS5003;34101;53.430;-2.224;2022-09-04T10:37:54;10;8;
46681;PMS5003;34101;53.430;-2.224;2022-09-04T10:40:36;7;7;
46681;PMS5003;34101;53.430;-2.224;2022-09-04T10:43:22;8;8;
46681;PMS5003;34101;53.430;-2.224;2022-09-04T10:45:59;8;8;
46681;PMS5003;34101;53.430;-2.224;2022-09-04T10:48:39;7;7;
46681;PMS5003;34101;53.430;-2.224;2022-09-04T10:52:13;9;8;
46681;PMS5003;34101;53.430;-2.224;2022-09-04T10:54:58;9;8;
46681;PMS5003;34101;53.430;-2.224;2022-09-04T10:57:53;8;6;
46681;PMS5003;34101;53.430;-2.224;2022-09-04T11:00:34;8;6;
46681;PMS5003;34101;53.430;-2.224;2022-09-04T11:03:28;11;10;
46681;PMS5003;34101;53.430;-2.224;2022-09-04T11:06:21;9;7;
46681;PMS5003;34101;53.430;-2.224;2022-09-04T11:09:12;9;9;
46681;PMS5003;34101;53.430;-2.224;2022-09-04T11:11:56;7;7;
46681;PMS5003;34101;53.430;-2.224;2022-09-04T11:14:50;5;5;
46681;PMS5003;34101;53.430;-2.224;2022-09-04T11:17:34;10;9;
46681;PMS5003;34101;53.430;-2.224;2022-09-04T11:21:32;7;7;
46681;PMS5003;34101;53.430;-2.224;2022-09-04T11:24:51;8;7;
46681;PMS5003;34101;53.430;-2.224;2022-09-04T11:28:42;9;8;
46681;PMS5003;34101;53.430;-2.224;2022-09-04T11:31:28;8;8;
46681;PMS5003;34101;53.430;-2.224;2022-09-04T11:34:15;9;9;
46681;PMS5003;34101;53.430;-2.224;2022-09-04T11:37:11;10;9;
46681;PMS5003;34101;53.430;-2.224;2022-09-04T11:40:26;11;9;
46681;PMS5003;34101;53.430;-2.224;2022-09-04T11:43:13;10;8;
46681;PMS5003;34101;53.430;-2.224;2022-09-04T11:46:04;9;9;
46681;PMS5003;34101;53.430;-2.224;2022-09-04T11:49:06;9;8;
46681;PMS5003;34101;53.430;-2.224;2022-09-04T11:51:50;6;6;
46681;PMS5003;34101;53.430;-2.224;2022-09-04T11:54:33;8;8;
46681;PMS5003;34101;53.430;-2.224;2022-09-04T11:57:14;8;8;
46681;PMS5003;34101;53.430;-2.224;2022-09-04T11:59:58;5;5;
46681;PMS5003;34101;53.430;-2.224;2022-09-04T12:02:40;7;7;
46681;PMS5003;34101;53.430;-2.224;2022-09-04T12:05:32;7;7;
46681;PMS5003;34101;53.430;-2.224;2022-09-04T12:08:14;6;6;
46681;PMS5003;34101;53.430;-2.224;2022-09-04T12:11:01;6;6;
46681;PMS5003;34101;53.430;-2.224;2022-09-04T12:13:49;7;4;
46681;PMS5003;34101;53.430;-2.224;2022-09-04T12:16:32;5;5;
46681;PMS5003;34101;53.430;-2.224;2022-09-04T12:18:55;5;5;
46681;PMS5003;34101;53.430;-2.224;2022-09-04T12:21:58;8;6;
46681;PMS5003;34101;53.430;-2.224;2022-09-04T12:24:59;6;6;
46681;PMS5003;34101;53.430;-2.224;2022-09-04T12:27:47;6;6;
46681;PMS5003;34101;53.430;-2.224;2022-09-04T12:30:37;7;6;
46681;PMS5003;34101;53.430;-2.224;2022-09-04T12:33:26;6;6;
46681;PMS5003;34101;53.430;-2.224;2022-09-04T12:36:31;7;6;
46681;PMS5003;34101;53.430;-2.224;2022-09-04T12:39:25;6;6;
46681;PMS5003;34101;53.430;-2.224;2022-09-04T12:42:12;6;6;
46681;PMS5003;34101;53.430;-2.224;2022-09-04T12:44:49;5;5;
46681;PMS5003;34101;53.430;-2.224;2022-09-04T12:47:29;7;7;
46681;PMS5003;34101;53.430;-2.224;2022-09-04T12:50:12;6;6;
46681;PMS5003;34101;53.430;-2.224;2022-09-04T12:52:47;6;6;
46681;PMS5003;34101;53.430;-2.224;2022-09-04T12:55:27;5;4;
46681;PMS5003;34101;53.430;-2.224;2022-09-04T12:58:03;6;5;
46681;PMS5003;34101;53.430;-2.224;2022-09-04T13:00:41;5;5;
46681;PMS5003;34101;53.430;-2.224;2022-09-04T13:03:20;7;6;
46681;PMS5003;34101;53.430;-2.224;2022-09-04T13:06:05;4;4;
46681;PMS5003;34101;53.430;-2.224;2022-09-04T13:08:45;7;4;
46681;PMS5003;34101;53.430;-2.224;2022-09-04T13:11:24;4;4;
46681;PMS5003;34101;53.430;-2.224;2022-09-04T13:14:07;5;5;
46681;PMS5003;34101;53.430;-2.224;2022-09-04T13:16:53;5;4;
46681;PMS5003;34101;53.430;-2.224;2022-09-04T13:19:27;4;4;
46681;PMS5003;34101;53.430;-2.224;2022-09-04T13:22:09;7;7;
46681;PMS5003;34101;53.430;-2.224;2022-09-04T13:24:49;4;4;
46681;PMS5003;34101;53.430;-2.224;2022-09-04T13:27:30;5;5;
46681;PMS5003;34101;53.430;-2.224;2022-09-04T13:30:06;5;5;
46681;PMS5003;34101;53.430;-2.224;2022-09-04T13:32:43;7;5;
46681;PMS5003;34101;53.430;-2.224;2022-09-04T13:35:21;4;3;
46681;PMS5003;34101;53.430;-2.224;2022-09-04T13:38:10;5;5;
46681;PMS5003;34101;53.430;-2.224;2022-09-04T13:41:39;5;3;
46681;PMS5003;34101;53.430;-2.224;2022-09-04T13:44:31;4;4;
46681;PMS5003;34101;53.430;-2.224;2022-09-04T13:47:10;3;3;
46681;PMS5003;34101;53.430;-2.224;2022-09-04T13:49:41;4;2;
46681;PMS5003;34101;53.430;-2.224;2022-09-04T13:52:13;4;3;
46681;PMS5003;34101;53.430;-2.224;2022-09-04T13:54:45;4;4;
46681;PMS5003;34101;53.430;-2.224;2022-09-04T13:57:20;3;3;
46681;PMS5003;34101;53.430;-2.224;2022-09-04T13:59:52;6;3;
46681;PMS5003;34101;53.430;-2.224;2022-09-04T14:02:22;4;4;
46681;PMS5003;34101;53.430;-2.224;2022-09-04T14:04:53;5;5;
46681;PMS5003;34101;53.430;-2.224;2022-09-04T14:07:25;5;3;
46681;PMS5003;34101;53.430;-2.224;2022-09-04T14:09:57;5;5;
46681;PMS5003;34101;53.430;-2.224;2022-09-04T14:12:46;4;4;
46681;PMS5003;34101;53.430;-2.224;2022-09-04T14:15:32;5;5;
46681;PMS5003;34101;53.430;-2.224;2022-09-04T14:18:16;5;3;
46681;PMS5003;34101;53.430;-2.224;2022-09-04T14:20:51;3;3;
46681;PMS5003;34101;53.430;-2.224;2022-09-04T14:23:21;3;3;
46681;PMS5003;34101;53.430;-2.224;2022-09-04T14:25:58;4;4;
46681;PMS5003;34101;53.430;-2.224;2022-09-04T14:28:33;3;3;
46681;PMS5003;34101;53.430;-2.224;2022-09-04T14:31:10;3;3;
46681;PMS5003;34101;53.430;-2.224;2022-09-04T14:33:48;4;2;
46681;PMS5003;34101;53.430;-2.224;2022-09-04T14:36:24;4;4;
46681;PMS5003;34101;53.430;-2.224;2022-09-04T14:39:05;5;4;
46681;PMS5003;34101;53.430;-2.224;2022-09-04T14:41:43;2;2;
46681;PMS5003;34101;53.430;-2.224;2022-09-04T14:44:23;1;1;
46681;PMS5003;34101;53.430;-2.224;2022-09-04T14:47:05;1;1;
46681;PMS5003;34101;53.430;-2.224;2022-09-04T14:49:40;4;3;
46681;PMS5003;34101;53.430;-2.224;2022-09-04T14:52:10;3;3;
46681;PMS5003;34101;53.430;-2.224;2022-09-04T14:54:42;4;2;
46681;PMS5003;34101;53.430;-2.224;2022-09-04T14:57:11;2;2;
46681;PMS5003;34101;53.430;-2.224;2022-09-04T14:59:45;2;2;
46681;PMS5003;34101;53.430;-2.224;2022-09-04T15:02:23;4;3;
46681;PMS5003;34101;53.430;-2.224;2022-09-04T15:04:59;2;2;
46681;PMS5003;34101;53.430;-2.224;2022-09-04T15:07:47;2;2;
46681;PMS5003;34101;53.430;-2.224;2022-09-04T15:10:21;3;3;
46681;PMS5003;34101;53.430;-2.224;2022-09-04T15:12:53;2;2;
46681;PMS5003;34101;53.430;-2.224;2022-09-04T15:15:41;4;4;
46681;PMS5003;34101;53.430;-2.224;2022-09-04T15:18:13;7;3;
46681;PMS5003;34101;53.430;-2.224;2022-09-04T15:20:50;2;2;
46681;PMS5003;34101;53.430;-2.224;2022-09-04T15:23:23;4;2;
46681;PMS5003;34101;53.430;-2.224;2022-09-04T15:26:00;3;2;
46681;PMS5003;34101;53.430;-2.224;2022-09-04T15:28:31;5;1;
46681;PMS5003;34101;53.430;-2.224;2022-09-04T15:31:07;3;3;
46681;PMS5003;34101;53.430;-2.224;2022-09-04T15:33:38;4;2;
46681;PMS5003;34101;53.430;-2.224;2022-09-04T15:36:07;5;3;
46681;PMS5003;34101;53.430;-2.224;2022-09-04T15:38:44;3;3;
46681;PMS5003;34101;53.430;-2.224;2022-09-04T15:41:14;3;3;
46681;PMS5003;34101;53.430;-2.224;2022-09-04T15:43:48;4;4;
46681;PMS5003;34101;53.430;-2.224;2022-09-04T15:46:21;3;3;
46681;PMS5003;34101;53.430;-2.224;2022-09-04T15:48:57;3;3;
46681;PMS5003;34101;53.430;-2.224;2022-09-04T15:51:38;4;4;
46681;PMS5003;34101;53.430;-2.224;2022-09-04T15:54:17;3;3;
46681;PMS5003;34101;53.430;-2.224;2022-09-04T15:56:55;3;3;
46681;PMS5003;34101;53.430;-2.224;2022-09-04T15:59:38;2;2;
46681;PMS5003;34101;53.430;-2.224;2022-09-04T16:02:19;3;3;
46681;PMS5003;34101;53.430;-2.224;2022-09-04T16:04:55;4;4;
46681;PMS5003;34101;53.430;-2.224;2022-09-04T16:07:32;4;3;
46681;PMS5003;34101;53.430;-2.224;2022-09-04T16:10:08;4;4;
46681;PMS5003;34101;53.430;-2.224;2022-09-04T16:12:47;5;5;
46681;PMS5003;34101;53.430;-2.224;2022-09-04T16:15:17;4;4;
46681;PMS5003;34101;53.430;-2.224;2022-09-04T16:17:50;3;3;
46681;PMS5003;34101;53.430;-2.224;2022-09-04T16:20:20;2;2;
46681;PMS5003;34101;53.430;-2.224;2022-09-04T16:22:53;4;4;
46681;PMS5003;34101;53.430;-2.224;2022-09-04T16:25:24;5;4;
46681;PMS5003;34101;53.430;-2.224;2022-09-04T16:27:56;2;2;
46681;PMS5003;34101;53.430;-2.224;2022-09-04T16:30:29;5;5;
46681;PMS5003;34101;53.430;-2.224;2022-09-04T16:33:00;4;4;
46681;PMS5003;34101;53.430;-2.224;2022-09-04T16:35:30;4;4;
46681;PMS5003;34101;53.430;-2.224;2022-09-04T16:38:07;3;3;
46681;PMS5003;34101;53.430;-2.224;2022-09-04T16:40:40;3;3;
46681;PMS5003;34101;53.430;-2.224;2022-09-04T16:43:17;5;4;
46681;PMS5003;34101;53.430;-2.224;2022-09-04T16:45:52;5;5;
46681;PMS5003;34101;53.430;-2.224;2022-09-04T16:48:32;4;3;
46681;PMS5003;34101;53.430;-2.224;2022-09-04T16:51:06;6;6;
46681;PMS5003;34101;53.430;-2.224;2022-09-04T16:53:40;4;4;
46681;PMS5003;34101;53.430;-2.224;2022-09-04T16:56:11;4;4;
46681;PMS5003;34101;53.430;-2.224;2022-09-04T16:58:47;5;5;
46681;PMS5003;34101;53.430;-2.224;2022-09-04T17:01:20;4;3;
46681;PMS5003;34101;53.430;-2.224;2022-09-04T17:03:55;3;3;
46681;PMS5003;34101;53.430;-2.224;2022-09-04T17:06:38;2;2;
46681;PMS5003;34101;53.430;-2.224;2022-09-04T17:09:14;4;4;
46681;PMS5003;34101;53.430;-2.224;2022-09-04T17:11:48;6;4;
46681;PMS5003;34101;53.430;-2.224;2022-09-04T17:14:18;5;4;
46681;PMS5003;34101;53.430;-2.224;2022-09-04T17:16:52;5;5;
46681;PMS5003;34101;53.430;-2.224;2022-09-04T17:19:20;2;2;
46681;PMS5003;34101;53.430;-2.224;2022-09-04T17:22:03;4;4;
46681;PMS5003;34101;53.430;-2.224;2022-09-04T17:24:46;3;3;
46681;PMS5003;34101;53.430;-2.224;2022-09-04T17:27:20;8;4;
46681;PMS5003;34101;53.430;-2.224;2022-09-04T17:29:52;5;5;
46681;PMS5003;34101;53.430;-2.224;2022-09-04T17:32:24;7;4;
46681;PMS5003;34101;53.430;-2.224;2022-09-04T17:34:57;4;4;
46681;PMS5003;34101;53.430;-2.224;2022-09-04T17:37:35;3;3;
46681;PMS5003;34101;53.430;-2.224;2022-09-04T17:40:08;4;4;
46681;PMS5003;34101;53.430;-2.224;2022-09-04T17:42:46;1;1;
46681;PMS5003;34101;53.430;-2.224;2022-09-04T17:45:22;3;3;
46681;PMS5003;34101;53.430;-2.224;2022-09-04T17:48:00;2;2;
46681;PMS5003;34101;53.430;-2.224;2022-09-04T17:50:34;3;3;
46681;PMS5003;34101;53.430;-2.224;2022-09-04T17:53:02;3;3;
46681;PMS5003;34101;53.430;-2.224;2022-09-04T17:55:33;3;3;
46681;PMS5003;34101;53.430;-2.224;2022-09-04T17:58:05;6;3;
46681;PMS5003;34101;53.430;-2.224;2022-09-04T18:00:48;3;3;
46681;PMS5003;34101;53.430;-2.224;2022-09-04T18:03:23;4;2;
46681;PMS5003;34101;53.430;-2.224;2022-09-04T18:05:57;8;4;
46681;PMS5003;34101;53.430;-2.224;2022-09-04T18:08:31;4;4;
46681;PMS5003;34101;53.430;-2.224;2022-09-04T18:11:06;4;2;
46681;PMS5003;34101;53.430;-2.224;2022-09-04T18:13:41;3;3;
46681;PMS5003;34101;53.430;-2.224;2022-09-04T18:16:33;6;4;